createdAt,value
2022-09-22T00:02:47.351Z,98623.03
2022-09-22T00:05:49.126Z,98614.75
2022-09-22T00:08:55.019Z,98617.81
2022-09-22T00:11:58.179Z,98611.53
2022-09-22T00:15:00.028Z,98612.25
2022-09-22T00:18:04.169Z,98609.88
2022-09-22T00:21:18.765Z,98609.28
2022-09-22T00:24:25.197Z,98604.75
2022-09-22T00:27:27.316Z,98596.56
2022-09-22T00:30:32.130Z,98601.41
2022-09-22T00:33:34.696Z,98595.81
2022-09-22T00:36:36.467Z,98596.06
2022-09-22T00:39:38.626Z,98593.56
2022-09-22T00:42:40.532Z,98599.03
2022-09-22T00:45:43.915Z,98591.66
2022-09-22T00:48:53.171Z,98593.44
2022-09-22T00:51:55.673Z,98600.69
2022-09-22T00:55:00.208Z,98583.34
2022-09-22T00:58:03.621Z,98595.91
2022-09-22T01:01:08.144Z,98597.25
2022-09-22T01:04:10.430Z,98591.16
2022-09-22T01:07:12.658Z,98591.06
2022-09-22T01:10:15.461Z,98585.09
2022-09-22T01:13:17.716Z,98592.84
2022-09-22T01:16:41.214Z,98592.84
2022-09-22T01:20:14.990Z,98581.06
2022-09-22T01:23:24.615Z,98586.78
2022-09-22T01:26:45.210Z,98584.97
2022-09-22T01:30:15.344Z,98574.28
2022-09-22T01:33:20.616Z,98570.63
2022-09-22T01:36:26.148Z,98578.34
2022-09-22T01:39:34.776Z,98575.25
2022-09-22T01:42:44.264Z,98579.41
2022-09-22T01:45:48.487Z,98578.13
2022-09-22T01:48:51.671Z,98573.00
2022-09-22T01:51:59.607Z,98570.75
2022-09-22T01:55:04.163Z,98565.66
2022-09-22T01:58:19.274Z,98555.34
2022-09-22T02:01:26.234Z,98558.88
2022-09-22T02:04:42.082Z,98559.09
2022-09-22T02:07:46.657Z,98557.94
2022-09-22T02:10:48.909Z,98557.78
2022-09-22T02:13:51.430Z,98562.19
2022-09-22T02:16:54.003Z,98550.59
2022-09-22T02:19:56.324Z,98551.50
2022-09-22T02:22:58.124Z,98542.97
2022-09-22T02:26:03.930Z,98542.38
2022-09-22T02:29:11.877Z,98548.91
2022-09-22T02:32:17.719Z,98551.41
2022-09-22T02:35:22.272Z,98545.72
2022-09-22T02:38:31.219Z,98548.31
2022-09-22T02:41:39.583Z,98547.25
2022-09-22T02:44:47.903Z,98542.94
2022-09-22T02:47:53.878Z,98532.28
2022-09-22T02:50:56.081Z,98542.03
2022-09-22T02:53:58.604Z,98540.78
2022-09-22T02:57:01.068Z,98544.72
2022-09-22T03:00:05.390Z,98538.91
2022-09-22T03:03:07.418Z,98543.28
2022-09-22T03:06:09.148Z,98544.38
2022-09-22T03:09:11.797Z,98545.19
2022-09-22T03:12:14.829Z,98558.47
2022-09-22T03:15:16.874Z,98546.84
2022-09-22T03:18:21.048Z,98546.00
2022-09-22T03:21:22.941Z,98546.75
2022-09-22T03:24:26.193Z,98549.81
2022-09-22T03:27:28.328Z,98559.28
2022-09-22T03:30:32.136Z,98556.53
2022-09-22T03:33:35.366Z,98541.47
2022-09-22T03:36:37.496Z,98540.06
2022-09-22T03:39:39.845Z,98538.91
2022-09-22T03:42:41.595Z,98534.88
2022-09-22T03:45:44.842Z,98531.91
2022-09-22T03:48:46.993Z,98548.41
2022-09-22T03:51:51.336Z,98540.78
2022-09-22T03:54:55.747Z,98533.69
2022-09-22T03:57:57.412Z,98527.59
2022-09-22T04:00:59.463Z,98529.25
2022-09-22T04:04:01.483Z,98524.31
2022-09-22T04:07:07.111Z,98514.19
2022-09-22T04:10:09.465Z,98520.38
2022-09-22T04:13:11.862Z,98512.16
2022-09-22T04:16:13.772Z,98519.31
2022-09-22T04:19:15.620Z,98506.84
2022-09-22T04:22:17.351Z,98523.69
2022-09-22T04:25:19.198Z,98529.75
2022-09-22T04:28:20.921Z,98522.97
2022-09-22T04:31:23.262Z,98527.50
2022-09-22T04:34:25.249Z,98530.13
2022-09-22T04:37:27.245Z,98531.06
2022-09-22T04:40:30.089Z,98529.38
2022-09-22T04:43:32.237Z,98529.63
2022-09-22T04:46:34.201Z,98529.53
2022-09-22T04:49:36.069Z,98530.56
2022-09-22T04:52:38.046Z,98527.59
2022-09-22T04:55:39.848Z,98540.34
2022-09-22T04:58:41.691Z,98525.38
2022-09-22T05:01:43.834Z,98532.28
2022-09-22T05:04:45.803Z,98539.28
2022-09-22T05:07:53.914Z,98540.50
2022-09-22T05:10:56.974Z,98537.88
2022-09-22T05:13:58.872Z,98543.34
2022-09-22T05:17:00.795Z,98557.94
2022-09-22T05:20:06.688Z,98554.84
2022-09-22T05:23:08.427Z,98552.13
2022-09-22T05:26:10.326Z,98557.00
2022-09-22T05:29:12.261Z,98564.84
2022-09-22T05:32:14.022Z,98564.09
2022-09-22T05:35:18.980Z,98560.03
2022-09-22T05:38:21.389Z,98564.91
2022-09-22T05:41:23.439Z,98575.53
2022-09-22T05:44:25.535Z,98559.69
2022-09-22T05:47:27.451Z,98569.25
2022-09-22T05:50:29.338Z,98563.00
2022-09-22T05:53:31.097Z,98560.25
2022-09-22T05:56:33.090Z,98565.69
2022-09-22T05:59:34.999Z,98564.47
2022-09-22T06:02:36.932Z,98571.44
2022-09-22T06:05:39.677Z,98578.59
2022-09-22T06:08:45.124Z,98579.22
2022-09-22T06:11:50.265Z,98574.56
2022-09-22T06:14:52.070Z,98574.47
2022-09-22T06:17:53.955Z,98565.09
2022-09-22T06:20:58.695Z,98566.84
2022-09-22T06:24:00.975Z,98573.97
2022-09-22T06:27:02.831Z,98567.53
2022-09-22T06:30:05.179Z,98569.19
2022-09-22T06:33:08.674Z,98573.91
2022-09-22T06:36:10.804Z,98576.28
2022-09-22T06:39:13.320Z,98581.34
2022-09-22T06:42:17.132Z,98576.41
2022-09-22T06:45:19.089Z,98581.84
2022-09-22T06:48:24.297Z,98583.72
2022-09-22T06:51:34.000Z,98593.56
2022-09-22T06:54:40.781Z,98579.06
2022-09-22T06:57:42.855Z,98578.91
2022-09-22T07:00:45.031Z,98582.09
2022-09-22T07:03:47.123Z,98580.13
2022-09-22T07:06:50.602Z,98577.06
2022-09-22T07:09:52.573Z,98576.91
2022-09-22T07:12:54.527Z,98581.16
2022-09-22T07:16:04.561Z,98578.94
2022-09-22T07:19:07.051Z,98574.94
2022-09-22T07:22:09.532Z,98578.22
2022-09-22T07:25:12.341Z,98570.69
2022-09-22T07:28:15.110Z,98571.53
2022-09-22T07:31:17.642Z,98582.75
2022-09-22T07:34:19.342Z,98579.69
2022-09-22T07:37:21.196Z,98582.47
2022-09-22T07:40:23.358Z,98582.59
2022-09-22T07:43:25.150Z,98579.56
2022-09-22T07:46:26.910Z,98582.19
2022-09-22T07:49:28.802Z,98569.31
2022-09-22T07:52:31.295Z,98570.47
2022-09-22T07:55:36.809Z,98563.66
2022-09-22T07:58:41.496Z,98570.25
2022-09-22T08:01:47.726Z,98572.69
2022-09-22T08:04:49.743Z,98567.41
2022-09-22T08:07:52.101Z,98581.28
2022-09-22T08:10:53.975Z,98573.56
2022-09-22T08:13:57.609Z,98576.72
2022-09-22T08:16:59.447Z,98586.50
2022-09-22T08:20:03.598Z,98603.03
2022-09-22T08:23:05.667Z,98607.63
2022-09-22T08:26:09.672Z,98602.94
2022-09-22T08:29:11.538Z,98605.53
2022-09-22T08:32:17.728Z,98601.97
2022-09-22T08:35:22.800Z,98598.78
2022-09-22T08:38:25.886Z,98596.25
2022-09-22T08:41:39.986Z,98594.78
2022-09-22T08:44:46.614Z,98594.97
2022-09-22T08:48:11.405Z,98598.06
2022-09-22T08:51:43.984Z,98600.56
2022-09-22T08:54:46.324Z,98605.44
2022-09-22T08:57:57.581Z,98602.97
2022-09-22T09:01:14.775Z,98605.97
2022-09-22T09:05:11.302Z,98597.22
2022-09-22T09:08:15.620Z,98596.34
2022-09-22T09:11:37.642Z,98599.19
2022-09-22T09:15:07.011Z,98596.66
2022-09-22T09:18:17.825Z,98595.09
2022-09-22T09:21:19.736Z,98604.13
2022-09-22T09:28:04.128Z,98596.38
2022-09-22T09:31:22.118Z,98598.75
2022-09-22T09:34:28.963Z,98607.13
2022-09-22T09:37:31.666Z,98597.28
2022-09-22T09:40:38.445Z,98601.13
2022-09-22T09:43:42.879Z,98593.69
2022-09-22T09:46:54.250Z,98587.34
2022-09-22T09:49:56.035Z,98577.16
2022-09-22T09:53:02.374Z,98573.56
2022-09-22T09:56:12.413Z,98582.56
2022-09-22T09:59:32.707Z,98583.25
2022-09-22T10:02:48.771Z,98574.63
2022-09-22T10:06:02.903Z,98573.19
2022-09-22T10:09:04.807Z,98580.38
2022-09-22T10:12:22.537Z,98565.25
2022-09-22T10:15:26.352Z,98568.22
2022-09-22T10:18:34.103Z,98569.25
2022-09-22T10:21:37.765Z,98566.22
2022-09-22T10:24:39.738Z,98558.31
2022-09-22T10:27:42.898Z,98549.88
2022-09-22T10:30:58.081Z,98558.81
2022-09-22T10:34:00.879Z,98558.25
2022-09-22T10:37:07.310Z,98556.84
2022-09-22T10:40:14.763Z,98558.72
2022-09-22T10:43:38.332Z,98557.88
2022-09-22T10:46:50.071Z,98559.50
2022-09-22T10:50:29.064Z,98559.81
2022-09-22T10:53:49.942Z,98563.25
2022-09-22T10:56:55.023Z,98577.59
2022-09-22T11:00:29.131Z,98593.84
2022-09-22T11:04:30.864Z,98582.47
2022-09-22T11:08:06.481Z,98586.72
2022-09-22T11:11:37.244Z,98591.88
2022-09-22T11:14:56.653Z,98589.25
2022-09-22T11:18:13.529Z,98590.41
2022-09-22T11:21:35.515Z,98588.72
2022-09-22T11:24:58.991Z,98582.97
2022-09-22T11:28:39.529Z,98582.38
2022-09-22T11:31:44.076Z,98570.63
2022-09-22T11:34:49.662Z,98576.28
2022-09-22T11:38:11.554Z,98577.06
2022-09-22T11:41:20.561Z,98568.25
2022-09-22T11:44:43.909Z,98559.53
2022-09-22T11:48:12.751Z,98559.81
2022-09-22T11:51:21.663Z,98549.53
2022-09-22T11:54:54.412Z,98545.41
2022-09-22T11:57:59.854Z,98537.91
2022-09-22T12:01:18.355Z,98525.75
2022-09-22T12:04:40.295Z,98524.09
2022-09-22T12:07:49.323Z,98511.88
2022-09-22T12:10:52.130Z,98515.91
2022-09-22T12:13:56.033Z,98518.16
2022-09-22T12:17:01.558Z,98510.84
2022-09-22T12:20:12.904Z,98511.91
2022-09-22T12:23:51.706Z,98511.16
2022-09-22T12:26:53.956Z,98510.19
2022-09-22T12:29:57.400Z,98511.88
2022-09-22T12:32:59.133Z,98498.19
2022-09-22T12:36:02.366Z,98502.22
2022-09-22T12:39:22.589Z,98491.38
2022-09-22T12:42:35.270Z,98489.72
2022-09-22T12:45:38.394Z,98499.66
2022-09-22T12:48:44.837Z,98491.69
2022-09-22T12:51:46.903Z,98489.88
2022-09-22T12:54:48.771Z,98483.44
2022-09-22T12:57:51.722Z,98488.09
2022-09-22T13:01:17.475Z,98485.91
2022-09-22T13:04:19.456Z,98489.66
2022-09-22T13:07:34.065Z,98487.78
2022-09-22T13:10:36.082Z,98479.78
2022-09-22T13:13:42.794Z,98478.97
2022-09-22T13:16:46.885Z,98468.97
2022-09-22T13:19:57.960Z,98465.50
2022-09-22T13:23:14.190Z,98465.69
2022-09-22T13:26:19.153Z,98461.25
2022-09-22T13:29:21.777Z,98460.28
2022-09-22T13:32:28.446Z,98459.47
2022-09-22T13:35:39.317Z,98455.66
2022-09-22T13:38:54.375Z,98451.34
2022-09-22T13:42:04.274Z,98454.91
2022-09-22T13:45:10.620Z,98456.25
2022-09-22T13:48:15.285Z,98462.47
2022-09-22T13:51:17.758Z,98458.53
2022-09-22T13:54:23.364Z,98453.63
2022-09-22T13:57:33.703Z,98452.38
2022-09-22T14:01:11.567Z,98444.00
2022-09-22T14:04:25.025Z,98446.63
2022-09-22T14:07:31.420Z,98449.50
2022-09-22T14:10:34.929Z,98448.88
2022-09-22T14:13:36.890Z,98461.28
2022-09-22T14:16:43.056Z,98463.66
2022-09-22T14:19:51.802Z,98459.81
2022-09-22T14:22:54.746Z,98453.69
2022-09-22T14:25:58.534Z,98448.19
2022-09-22T14:29:15.764Z,98445.19
2022-09-22T14:32:32.084Z,98444.53
2022-09-22T14:35:39.094Z,98439.75
2022-09-22T14:38:46.699Z,98431.50
2022-09-22T14:41:59.402Z,98428.03
2022-09-22T14:45:12.167Z,98435.47
2022-09-22T14:48:21.390Z,98432.63
2022-09-22T14:51:25.057Z,98432.84
2022-09-22T14:54:31.229Z,98434.88
2022-09-22T14:57:34.407Z,98445.47
2022-09-22T15:00:55.932Z,98441.31
2022-09-22T15:04:03.302Z,98447.09
2022-09-22T15:07:08.936Z,98443.16
2022-09-22T15:10:25.852Z,98435.59
2022-09-22T15:13:31.967Z,98438.66
2022-09-22T15:16:34.025Z,98439.19
2022-09-22T15:19:38.014Z,98436.66
2022-09-22T15:22:40.145Z,98452.00
2022-09-22T15:25:44.668Z,98444.13
2022-09-22T15:28:48.171Z,98444.78
2022-09-22T15:31:50.980Z,98441.78
2022-09-22T15:34:55.210Z,98440.47
2022-09-22T15:37:57.537Z,98442.97
2022-09-22T15:41:00.217Z,98437.88
2022-09-22T15:44:03.311Z,98445.72
2022-09-22T15:47:06.548Z,98445.00
2022-09-22T15:50:18.497Z,98454.09
2022-09-22T15:53:20.591Z,98456.97
2022-09-22T15:56:24.454Z,98452.59
2022-09-22T15:59:28.725Z,98458.69
2022-09-22T16:02:32.960Z,98465.38
2022-09-22T16:05:36.365Z,98461.28
2022-09-22T16:08:46.823Z,98463.03
2022-09-22T16:11:49.958Z,98465.13
2022-09-22T16:14:52.775Z,98464.00
2022-09-22T16:17:54.748Z,98469.13
2022-09-22T16:21:33.315Z,98477.56
2022-09-22T16:24:35.245Z,98470.03
2022-09-22T16:27:39.216Z,98473.66
2022-09-22T16:30:41.662Z,98478.16
2022-09-22T16:33:45.420Z,98481.59
2022-09-22T16:36:47.687Z,98476.16
2022-09-22T16:39:50.222Z,98481.69
2022-09-22T16:42:53.195Z,98481.00
2022-09-22T16:46:14.045Z,98479.00
2022-09-22T16:49:17.696Z,98482.66
2022-09-22T16:52:20.406Z,98485.19
2022-09-22T16:55:22.882Z,98481.44
2022-09-22T16:58:24.900Z,98486.75
2022-09-22T17:01:27.785Z,98487.22
2022-09-22T17:04:32.397Z,98491.41
2022-09-22T17:07:34.486Z,98503.19
2022-09-22T17:10:36.549Z,98508.00
2022-09-22T17:13:38.745Z,98497.94
2022-09-22T17:16:43.174Z,98506.53
2022-09-22T17:19:48.715Z,98513.03
2022-09-22T17:22:52.135Z,98521.44
2022-09-22T17:25:54.375Z,98521.41
2022-09-22T17:29:01.194Z,98521.09
2022-09-22T17:32:06.125Z,98524.38
2022-09-22T17:35:11.985Z,98521.00
2022-09-22T17:38:14.175Z,98520.81
2022-09-22T17:41:19.833Z,98523.91
2022-09-22T17:44:28.054Z,98528.44
2022-09-22T17:47:48.797Z,98524.22
2022-09-22T17:51:09.848Z,98524.06
2022-09-22T17:54:44.736Z,98535.28
2022-09-22T17:57:46.971Z,98534.22
2022-09-22T18:00:49.908Z,98529.59
2022-09-22T18:03:52.805Z,98531.88
2022-09-22T18:06:54.928Z,98535.66
2022-09-22T18:09:57.233Z,98540.38
2022-09-22T18:13:00.721Z,98532.66
2022-09-22T18:16:25.458Z,98539.09
2022-09-22T18:19:29.370Z,98538.41
2022-09-22T18:22:31.956Z,98550.69
2022-09-22T18:25:34.228Z,98539.41
2022-09-22T18:28:37.121Z,98547.56
2022-09-22T18:31:40.006Z,98542.53
2022-09-22T18:34:42.299Z,98544.28
2022-09-22T18:37:47.968Z,98540.38
2022-09-22T18:40:51.374Z,98543.47
2022-09-22T18:43:54.065Z,98546.72
2022-09-22T18:46:56.733Z,98548.69
2022-09-22T18:50:00.078Z,98546.41
2022-09-22T18:53:02.329Z,98545.97
2022-09-22T18:56:11.368Z,98546.47
2022-09-22T18:59:23.645Z,98552.91
2022-09-22T19:02:25.991Z,98544.38
2022-09-22T19:05:28.908Z,98543.13
2022-09-22T19:08:31.055Z,98545.84
2022-09-22T19:11:35.646Z,98556.88
2022-09-22T19:14:39.977Z,98567.91
2022-09-22T19:17:50.082Z,98570.22
2022-09-22T19:20:51.989Z,98569.66
2022-09-22T19:23:54.647Z,98577.94
2022-09-22T19:26:57.044Z,98580.34
2022-09-22T19:29:59.830Z,98578.88
2022-09-22T19:33:02.121Z,98576.19
2022-09-22T19:36:04.530Z,98581.28
2022-09-22T19:39:08.636Z,98570.47
2022-09-22T19:42:10.658Z,98578.75
2022-09-22T19:45:13.728Z,98574.69
2022-09-22T19:48:16.277Z,98571.50
2022-09-22T19:51:18.673Z,98579.69
2022-09-22T19:54:21.284Z,98584.75
2022-09-22T19:57:23.408Z,98574.63
2022-09-22T20:00:28.779Z,98580.66
2022-09-22T20:03:30.713Z,98580.22
2022-09-22T20:06:34.694Z,98574.50
2022-09-22T20:09:36.948Z,98570.31
2022-09-22T20:12:39.982Z,98575.97
2022-09-22T20:15:42.380Z,98572.53
2022-09-22T20:18:44.359Z,98581.41
2022-09-22T20:21:47.653Z,98582.97
2022-09-22T20:24:55.339Z,98583.75
2022-09-22T20:27:57.780Z,98588.75
2022-09-22T20:30:59.658Z,98577.59
2022-09-22T20:34:02.554Z,98584.97
2022-09-22T20:37:04.819Z,98587.56
2022-09-22T20:40:20.565Z,98583.75
2022-09-22T20:43:23.780Z,98583.97
2022-09-22T20:46:26.260Z,98576.84
2022-09-22T20:49:29.263Z,98587.81
2022-09-22T20:52:31.547Z,98584.75
2022-09-22T20:55:33.753Z,98587.81
2022-09-22T20:58:40.485Z,98587.00
2022-09-22T21:01:43.241Z,98586.16
2022-09-22T21:04:45.426Z,98583.78
2022-09-22T21:07:47.328Z,98590.09
2022-09-22T21:10:51.227Z,98578.59
2022-09-22T21:14:03.238Z,98575.50
2022-09-22T21:17:06.895Z,98578.72
2022-09-22T21:20:09.755Z,98578.59
2022-09-22T21:23:11.935Z,98577.09
2022-09-22T21:26:17.211Z,98571.13
2022-09-22T21:29:21.375Z,98575.63
2022-09-22T21:32:24.406Z,98568.38
2022-09-22T21:35:26.472Z,98568.84
2022-09-22T21:38:30.075Z,98574.53
2022-09-22T21:41:32.657Z,98582.72
2022-09-22T21:44:34.479Z,98583.31
2022-09-22T21:47:37.575Z,98584.22
2022-09-22T21:50:39.350Z,98578.63
2022-09-22T21:53:44.632Z,98580.91
2022-09-22T21:56:47.047Z,98582.81
2022-09-22T21:59:48.863Z,98586.38
2022-09-22T22:03:09.899Z,98577.00
2022-09-22T22:06:18.885Z,98573.78
2022-09-22T22:09:22.749Z,98563.09
2022-09-22T22:12:25.518Z,98566.09
2022-09-22T22:15:27.640Z,98568.03
2022-09-22T22:18:29.948Z,98562.59
2022-09-22T22:21:35.314Z,98562.44
2022-09-22T22:24:43.207Z,98560.19
2022-09-22T22:27:45.994Z,98553.31
2022-09-22T22:30:48.425Z,98549.38
2022-09-22T22:33:50.800Z,98541.50
2022-09-22T22:36:54.405Z,98545.19
2022-09-22T22:39:56.798Z,98549.47
2022-09-22T22:42:58.709Z,98546.41
2022-09-22T22:46:01.867Z,98541.78
2022-09-22T22:49:04.116Z,98540.50
2022-09-22T22:52:06.106Z,98532.09
2022-09-22T22:55:09.582Z,98534.00
2022-09-22T22:58:12.835Z,98533.19
2022-09-22T23:01:18.648Z,98530.56
2022-09-22T23:04:21.364Z,98525.84
2022-09-22T23:07:23.793Z,98530.13
2022-09-22T23:10:26.069Z,98531.91
2022-09-22T23:13:31.950Z,98520.50
2022-09-22T23:16:47.084Z,98522.75
2022-09-22T23:19:50.535Z,98522.28
2022-09-22T23:22:56.220Z,98520.16
2022-09-22T23:25:58.520Z,98521.59
2022-09-22T23:29:01.619Z,98516.38
2022-09-22T23:32:03.985Z,98521.13
2022-09-22T23:35:07.292Z,98514.00
2022-09-22T23:38:09.413Z,98517.09
2022-09-22T23:41:12.813Z,98518.75
2022-09-22T23:44:14.880Z,98513.50
2022-09-22T23:47:17.139Z,98515.16
2022-09-22T23:50:19.377Z,98516.50
2022-09-22T23:53:24.784Z,98507.84
2022-09-22T23:56:27.920Z,98504.25
2022-09-22T23:59:29.704Z,98509.22
